createdAt,value
2023-03-04T00:00:52.667Z,3.20
2023-03-04T00:03:22.383Z,2.70
2023-03-04T00:05:51.063Z,4.00
2023-03-04T00:08:19.377Z,2.22
2023-03-04T00:10:47.790Z,2.88
2023-03-04T00:13:17.021Z,1.70
2023-03-04T00:15:45.367Z,3.60
2023-03-04T00:18:13.887Z,3.22
2023-03-04T00:20:43.812Z,2.63
2023-03-04T00:23:12.053Z,2.17
2023-03-04T00:25:43.205Z,2.97
2023-03-04T00:28:11.680Z,2.03
2023-03-04T00:30:43.725Z,2.97
2023-03-04T00:33:14.244Z,3.05
2023-03-04T00:35:44.372Z,3.55
2023-03-04T00:38:13.032Z,2.88
2023-03-04T00:40:41.370Z,2.60
2023-03-04T00:43:10.906Z,2.17
2023-03-04T00:45:39.428Z,2.60
2023-03-04T00:48:07.974Z,2.63
2023-03-04T00:50:37.431Z,2.57
2023-03-04T00:53:07.378Z,3.33
2023-03-04T00:55:35.990Z,2.47
2023-03-04T00:58:04.179Z,3.10
2023-03-04T01:00:32.539Z,2.45
2023-03-04T01:03:01.083Z,2.92
2023-03-04T01:05:29.670Z,3.75
2023-03-04T01:07:59.589Z,2.72
2023-03-04T01:10:30.614Z,3.45
2023-03-04T01:12:58.797Z,2.88
2023-03-04T01:15:28.886Z,3.63
2023-03-04T01:17:58.132Z,3.57
2023-03-04T01:20:26.282Z,4.13
2023-03-04T01:22:55.340Z,2.95
2023-03-04T01:25:23.494Z,3.22
2023-03-04T01:27:53.389Z,2.88
2023-03-04T01:30:21.988Z,2.40
2023-03-04T01:32:54.027Z,3.10
2023-03-04T01:35:22.214Z,3.42
2023-03-04T01:37:50.695Z,4.28
2023-03-04T01:40:19.541Z,3.45
2023-03-04T01:42:47.814Z,3.27
2023-03-04T01:45:19.267Z,3.03
2023-03-04T01:47:50.054Z,2.47
2023-03-04T01:50:23.312Z,2.95
2023-03-04T01:52:54.830Z,3.45
2023-03-04T01:55:25.865Z,2.95
2023-03-04T01:57:54.788Z,2.97
2023-03-04T02:00:29.025Z,3.42
2023-03-04T02:03:01.550Z,3.15
2023-03-04T02:05:31.277Z,3.03
2023-03-04T02:10:30.152Z,3.00
2023-03-04T02:13:00.420Z,2.08
2023-03-04T02:15:31.930Z,2.58
2023-03-04T02:18:00.254Z,3.63
2023-03-04T02:20:41.467Z,3.38
2023-03-04T02:23:21.548Z,4.32
2023-03-04T02:25:56.491Z,4.32
2023-03-04T02:28:26.588Z,3.88
2023-03-04T02:33:23.681Z,3.10
2023-03-04T02:35:51.966Z,2.33
2023-03-04T02:38:21.892Z,2.90
2023-03-04T02:40:53.232Z,2.90
2023-03-04T02:43:22.155Z,3.53
2023-03-04T02:45:54.699Z,2.80
2023-03-04T02:48:24.144Z,4.43
2023-03-04T02:50:54.604Z,3.88
2023-03-04T02:53:25.683Z,3.03
2023-03-04T02:55:55.970Z,2.95
2023-03-04T02:58:26.105Z,3.75
2023-03-04T03:00:56.653Z,3.30
2023-03-04T03:03:26.008Z,3.33
2023-03-04T03:05:55.350Z,4.20
2023-03-04T03:08:24.305Z,4.85
2023-03-04T03:10:52.593Z,4.57
2023-03-04T03:13:24.702Z,2.90
2023-03-04T03:15:54.170Z,3.25
2023-03-04T03:18:26.870Z,3.03
2023-03-04T03:20:55.526Z,3.55
2023-03-04T03:23:24.583Z,3.13
2023-03-04T03:28:22.184Z,2.95
2023-03-04T03:30:50.394Z,2.50
2023-03-04T03:33:18.627Z,4.10
2023-03-04T03:35:49.008Z,5.05
2023-03-04T03:38:17.210Z,2.90
2023-03-04T03:40:46.018Z,3.28
2023-03-04T03:43:14.464Z,3.42
2023-03-04T03:45:42.603Z,3.97
2023-03-04T03:48:10.970Z,3.33
2023-03-04T03:50:40.340Z,3.83
2023-03-04T03:53:09.963Z,3.10
2023-03-04T03:55:38.878Z,4.63
2023-03-04T03:58:07.670Z,3.40
2023-03-04T04:00:36.103Z,3.05
2023-03-04T04:03:05.506Z,2.63
2023-03-04T04:05:34.271Z,2.85
2023-03-04T04:08:04.002Z,4.25
2023-03-04T04:10:36.608Z,2.70
2023-03-04T04:13:07.144Z,3.72
2023-03-04T04:15:37.363Z,3.97
2023-03-04T04:18:05.882Z,3.55
2023-03-04T04:20:34.166Z,3.85
2023-03-04T04:23:04.949Z,4.25
2023-03-04T04:25:33.973Z,3.60
2023-03-04T04:28:06.193Z,3.20
2023-03-04T04:30:34.774Z,3.92
2023-03-04T04:33:04.833Z,3.22
2023-03-04T04:35:34.202Z,3.25
2023-03-04T04:38:02.783Z,3.47
2023-03-04T04:40:31.136Z,3.58
2023-03-04T04:42:59.346Z,4.70
2023-03-04T04:45:30.299Z,4.53
2023-03-04T04:48:00.125Z,6.07
2023-03-04T04:50:29.850Z,5.15
2023-03-04T04:52:59.575Z,4.60
2023-03-04T04:55:28.270Z,5.13
2023-03-04T04:58:07.205Z,4.72
2023-03-04T05:00:36.563Z,5.15
2023-03-04T05:03:05.846Z,4.97
2023-03-04T05:05:34.458Z,4.68
2023-03-04T05:08:03.844Z,6.28
2023-03-04T05:10:33.665Z,5.70
2023-03-04T05:13:05.108Z,6.25
2023-03-04T05:18:03.888Z,6.68
2023-03-04T05:20:32.097Z,5.00
2023-03-04T05:23:00.251Z,5.72
2023-03-04T05:25:28.604Z,6.93
2023-03-04T05:27:56.795Z,5.30
2023-03-04T05:30:26.705Z,6.43
2023-03-04T05:32:55.026Z,5.00
2023-03-04T05:35:25.722Z,5.28
2023-03-04T05:37:56.085Z,5.72
2023-03-04T05:40:25.937Z,6.35
2023-03-04T05:42:54.428Z,5.30
2023-03-04T05:45:22.683Z,6.57
2023-03-04T05:47:50.803Z,5.95
2023-03-04T05:50:20.361Z,5.15
2023-03-04T05:52:50.877Z,5.38
2023-03-04T05:55:20.155Z,7.75
2023-03-04T05:57:48.621Z,5.22
2023-03-04T06:00:18.505Z,5.53
2023-03-04T06:02:47.111Z,5.80
2023-03-04T06:05:17.201Z,5.80
2023-03-04T06:10:17.645Z,5.57
2023-03-04T06:12:46.374Z,6.68
2023-03-04T06:15:15.310Z,6.25
2023-03-04T06:17:44.338Z,6.07
2023-03-04T06:20:14.036Z,7.13
2023-03-04T06:22:42.669Z,5.93
2023-03-04T06:25:12.795Z,6.85
2023-03-04T06:27:43.036Z,5.70
2023-03-04T06:30:12.492Z,7.72
2023-03-04T06:32:44.134Z,6.85
2023-03-04T06:35:12.321Z,5.90
2023-03-04T06:37:41.227Z,7.40
2023-03-04T06:40:11.551Z,7.13
2023-03-04T06:42:40.454Z,8.00
2023-03-04T06:45:12.513Z,8.60
2023-03-04T06:47:41.006Z,7.55
2023-03-04T06:50:14.054Z,5.82
2023-03-04T06:52:42.296Z,6.53
2023-03-04T06:55:13.002Z,7.32
2023-03-04T06:57:41.439Z,5.68
2023-03-04T07:00:12.514Z,6.45
2023-03-04T07:02:42.198Z,6.88
2023-03-04T07:05:11.870Z,6.80
2023-03-04T07:07:39.977Z,5.45
2023-03-04T07:10:10.777Z,7.78
2023-03-04T07:12:39.348Z,5.55
2023-03-04T07:15:08.846Z,7.88
2023-03-04T07:17:38.471Z,7.40
2023-03-04T07:20:07.511Z,8.80
2023-03-04T07:22:38.318Z,8.38
2023-03-04T07:25:07.809Z,7.68
2023-03-04T07:27:38.451Z,6.57
2023-03-04T07:30:08.084Z,8.65
2023-03-04T07:32:36.415Z,7.72
2023-03-04T07:35:07.302Z,7.32
2023-03-04T07:37:35.814Z,8.40
2023-03-04T07:40:08.262Z,8.82
2023-03-04T07:42:37.240Z,7.78
2023-03-04T07:45:16.091Z,8.38
2023-03-04T07:47:44.582Z,7.70
2023-03-04T07:50:17.615Z,7.47
2023-03-04T07:52:48.911Z,9.38
2023-03-04T07:55:19.106Z,8.63
2023-03-04T07:57:50.111Z,7.18
2023-03-04T08:00:19.295Z,5.68
2023-03-04T08:02:47.503Z,7.15
2023-03-04T08:05:19.197Z,5.53
2023-03-04T08:07:47.496Z,7.40
2023-03-04T08:10:15.686Z,7.80
2023-03-04T08:12:44.222Z,6.57
2023-03-04T08:15:13.215Z,7.85
2023-03-04T08:17:41.742Z,7.65
2023-03-04T08:20:13.133Z,7.40
2023-03-04T08:22:44.778Z,8.50
2023-03-04T08:25:13.088Z,10.15
2023-03-04T08:27:42.942Z,8.60
2023-03-04T08:30:12.755Z,9.13
2023-03-04T08:32:41.544Z,9.00
2023-03-04T08:35:11.886Z,7.28
2023-03-04T08:37:40.235Z,9.43
2023-03-04T08:40:12.986Z,8.60
2023-03-04T08:42:42.074Z,7.60
2023-03-04T08:45:11.524Z,11.18
2023-03-04T08:47:41.794Z,9.48
2023-03-04T08:50:11.527Z,7.45
2023-03-04T08:55:10.463Z,8.95
2023-03-04T08:57:38.944Z,8.02
2023-03-04T09:00:08.663Z,8.90
2023-03-04T09:05:06.376Z,9.63
2023-03-04T09:07:34.787Z,10.43
2023-03-04T09:10:03.567Z,9.38
2023-03-04T09:12:36.136Z,8.77
2023-03-04T09:15:11.625Z,8.65
2023-03-04T09:17:42.415Z,8.05
2023-03-04T09:20:13.410Z,10.57
2023-03-04T09:22:43.349Z,9.10
2023-03-04T09:25:15.241Z,9.75
2023-03-04T09:27:45.446Z,11.10
2023-03-04T09:30:14.973Z,9.80
2023-03-04T09:32:43.746Z,9.65
2023-03-04T09:35:12.629Z,10.07
2023-03-04T09:37:42.836Z,10.97
2023-03-04T09:40:18.805Z,11.23
2023-03-04T09:42:52.573Z,10.13
2023-03-04T09:45:23.346Z,11.30
2023-03-04T09:47:54.757Z,12.70
2023-03-04T09:50:24.161Z,11.45
2023-03-04T09:53:07.703Z,11.63
2023-03-04T09:55:40.487Z,12.70
2023-03-04T09:58:22.711Z,12.68
2023-03-04T10:00:56.623Z,11.65
2023-03-04T10:03:29.653Z,12.70
2023-03-04T10:06:03.321Z,10.35
2023-03-04T10:08:40.338Z,10.55
2023-03-04T10:11:15.681Z,12.70
2023-03-04T10:14:05.509Z,12.45
2023-03-04T10:16:40.314Z,11.50
2023-03-04T10:19:27.498Z,13.10
2023-03-04T10:21:55.794Z,12.27
2023-03-04T10:24:29.173Z,11.65
2023-03-04T10:27:02.759Z,11.10
2023-03-04T10:29:34.193Z,11.98
2023-03-04T10:32:02.601Z,12.60
2023-03-04T10:34:31.196Z,11.98
2023-03-04T10:37:02.508Z,11.68
2023-03-04T10:39:33.472Z,10.48
2023-03-04T10:42:04.210Z,12.13
2023-03-04T10:44:39.842Z,11.25
2023-03-04T10:47:14.285Z,11.73
2023-03-04T10:49:53.421Z,11.52
2023-03-04T10:52:30.724Z,12.98
2023-03-04T10:55:01.719Z,11.10
2023-03-04T10:57:37.048Z,12.23
2023-03-04T11:00:27.138Z,13.38
2023-03-04T11:03:31.884Z,12.25
2023-03-04T11:06:18.908Z,11.60
2023-03-04T11:08:55.398Z,10.75
2023-03-04T11:11:26.743Z,10.40
2023-03-04T11:13:59.971Z,10.93
2023-03-04T11:16:32.264Z,9.82
2023-03-04T11:19:05.792Z,11.82
2023-03-04T11:21:40.757Z,10.63
2023-03-04T11:24:27.746Z,11.60
2023-03-04T11:27:02.928Z,11.30
2023-03-04T11:29:36.334Z,12.18
2023-03-04T11:32:10.358Z,11.02
2023-03-04T11:34:46.224Z,13.98
2023-03-04T11:37:24.042Z,13.15
2023-03-04T11:39:58.105Z,15.40
2023-03-04T11:42:35.373Z,14.48
2023-03-04T11:45:05.046Z,14.00
2023-03-04T11:47:59.361Z,13.75
2023-03-04T11:50:39.256Z,9.93
2023-03-04T11:53:26.232Z,9.55
2023-03-04T11:56:17.233Z,10.02
2023-03-04T11:59:02.685Z,11.23
2023-03-04T12:01:39.329Z,9.93
2023-03-04T12:04:32.381Z,10.57
2023-03-04T12:07:22.097Z,10.48
2023-03-04T12:10:04.925Z,9.27
2023-03-04T12:12:49.982Z,7.85
2023-03-04T12:15:24.400Z,7.75
2023-03-04T12:18:19.578Z,6.85
2023-03-04T12:21:14.997Z,7.72
2023-03-04T12:24:23.952Z,7.65
2023-03-04T12:26:59.070Z,6.47
2023-03-04T12:29:36.972Z,8.98
2023-03-04T12:32:15.156Z,8.23
2023-03-04T12:35:02.306Z,10.20
2023-03-04T12:37:43.871Z,15.27
2023-03-04T12:40:34.044Z,12.77
2023-03-04T12:43:26.929Z,12.35
2023-03-04T12:46:06.948Z,9.55
2023-03-04T12:48:40.939Z,7.40
2023-03-04T12:51:31.654Z,7.25
2023-03-04T12:54:14.697Z,7.30
2023-03-04T12:56:48.833Z,9.30
2023-03-04T12:59:22.141Z,7.80
2023-03-04T13:02:04.412Z,7.25
2023-03-04T13:04:48.435Z,8.20
2023-03-04T13:07:28.323Z,6.55
2023-03-04T13:10:02.983Z,6.95
2023-03-04T13:12:48.562Z,6.85
2023-03-04T13:15:31.488Z,8.25
2023-03-04T13:18:01.306Z,7.07
2023-03-04T13:21:17.582Z,6.95
2023-03-04T13:23:45.834Z,8.30
2023-03-04T13:26:21.571Z,6.28
2023-03-04T13:28:55.406Z,7.05
2023-03-04T13:31:59.018Z,8.00
2023-03-04T13:34:53.763Z,6.90
2023-03-04T13:37:31.026Z,7.72
2023-03-04T13:40:27.613Z,6.65
2023-03-04T13:42:56.359Z,8.40
2023-03-04T13:45:37.670Z,7.90
2023-03-04T13:48:22.816Z,8.57
2023-03-04T13:50:54.048Z,7.15
2023-03-04T13:53:39.220Z,7.43
2023-03-04T13:56:25.221Z,7.03
2023-03-04T13:59:02.623Z,8.18
2023-03-04T14:01:34.741Z,7.97
2023-03-04T14:04:18.130Z,8.27
2023-03-04T14:06:47.261Z,7.22
2023-03-04T14:09:17.055Z,8.35
2023-03-04T14:11:45.863Z,7.10
2023-03-04T14:14:17.136Z,7.10
2023-03-04T14:16:50.753Z,6.63
2023-03-04T14:19:28.864Z,7.05
2023-03-04T14:21:58.671Z,6.40
2023-03-04T14:27:12.282Z,6.25
2023-03-04T14:29:41.548Z,6.72
2023-03-04T14:32:13.173Z,6.70
2023-03-04T14:34:43.164Z,6.65
2023-03-04T14:37:23.035Z,7.13
2023-03-04T14:39:55.816Z,7.15
2023-03-04T14:42:26.825Z,5.93
2023-03-04T14:45:00.021Z,6.18
2023-03-04T14:47:34.339Z,5.18
2023-03-04T14:50:06.427Z,7.57
2023-03-04T14:52:39.265Z,6.70
2023-03-04T14:55:24.037Z,6.15
2023-03-04T14:57:58.391Z,6.15
2023-03-04T15:00:32.214Z,6.05
2023-03-04T15:03:02.013Z,5.82
2023-03-04T15:08:02.633Z,6.72
2023-03-04T15:10:35.348Z,6.22
2023-03-04T15:13:06.605Z,6.53
2023-03-04T15:15:40.074Z,6.20
2023-03-04T15:18:22.536Z,6.78
2023-03-04T15:20:58.014Z,4.72
2023-03-04T15:23:27.017Z,5.70
2023-03-04T15:25:58.114Z,6.07
2023-03-04T15:28:40.241Z,5.18
2023-03-04T15:31:17.711Z,5.57
2023-03-04T15:33:46.440Z,5.22
2023-03-04T15:36:19.886Z,6.30
2023-03-04T15:38:51.174Z,5.57
2023-03-04T15:41:25.001Z,6.22
2023-03-04T15:43:54.874Z,6.95
2023-03-04T15:46:24.422Z,6.20
2023-03-04T15:48:53.076Z,6.32
2023-03-04T15:51:28.073Z,6.85
2023-03-04T15:54:03.188Z,6.40
2023-03-04T15:56:34.067Z,6.63
2023-03-04T15:59:05.479Z,6.43
2023-03-04T16:01:33.848Z,5.13
2023-03-04T16:04:02.560Z,5.97
2023-03-04T16:06:34.077Z,6.72
2023-03-04T16:09:07.464Z,5.63
2023-03-04T16:11:44.617Z,4.72
2023-03-04T16:14:14.665Z,5.35
2023-03-04T16:16:44.117Z,4.95
2023-03-04T16:19:12.586Z,6.50
2023-03-04T16:21:44.377Z,5.70
2023-03-04T16:24:18.941Z,5.53
2023-03-04T16:26:47.417Z,6.10
2023-03-04T16:29:16.559Z,5.63
2023-03-04T16:31:45.409Z,5.65
2023-03-04T16:34:14.641Z,6.20
2023-03-04T16:36:45.879Z,5.07
2023-03-04T16:39:21.043Z,5.28
2023-03-04T16:41:50.256Z,5.70
2023-03-04T16:44:18.770Z,5.03
2023-03-04T16:46:47.053Z,4.60
2023-03-04T16:49:15.156Z,4.80
2023-03-04T16:51:49.236Z,5.28
2023-03-04T16:54:25.305Z,5.38
2023-03-04T16:56:54.763Z,5.70
2023-03-04T16:59:25.831Z,4.85
2023-03-04T17:01:57.626Z,5.32
2023-03-04T17:04:26.027Z,5.80
2023-03-04T17:06:55.797Z,5.40
2023-03-04T17:11:53.868Z,5.90
2023-03-04T17:14:22.901Z,5.57
2023-03-04T17:16:52.684Z,5.30
2023-03-04T17:19:21.835Z,6.15
2023-03-04T17:21:50.451Z,6.10
2023-03-04T17:24:20.484Z,5.38
2023-03-04T17:26:48.555Z,6.40
2023-03-04T17:29:17.059Z,5.90
2023-03-04T17:31:46.377Z,6.60
2023-03-04T17:34:15.723Z,6.18
2023-03-04T17:36:46.202Z,6.00
2023-03-04T17:39:14.658Z,6.28
2023-03-04T17:41:44.630Z,7.13
2023-03-04T17:44:15.633Z,7.43
2023-03-04T17:46:47.991Z,6.78
2023-03-04T17:49:16.885Z,6.57
2023-03-04T17:51:46.437Z,5.93
2023-03-04T17:54:14.552Z,7.32
2023-03-04T17:59:17.351Z,8.27
2023-03-04T18:04:15.970Z,6.65
2023-03-04T18:06:44.763Z,6.78
2023-03-04T18:09:14.312Z,7.80
2023-03-04T18:11:45.751Z,7.78
2023-03-04T18:14:16.377Z,7.65
2023-03-04T18:16:45.056Z,6.53
2023-03-04T18:19:13.472Z,7.35
2023-03-04T18:21:42.061Z,9.00
2023-03-04T18:24:11.184Z,8.63
2023-03-04T18:26:42.130Z,7.93
2023-03-04T18:29:10.824Z,9.75
2023-03-04T18:31:40.610Z,8.45
2023-03-04T18:34:09.067Z,7.20
2023-03-04T18:36:38.052Z,7.45
2023-03-04T18:39:07.316Z,8.40
2023-03-04T18:41:36.006Z,9.13
2023-03-04T18:44:05.317Z,7.28
2023-03-04T18:46:44.492Z,8.07
2023-03-04T18:49:15.452Z,8.00
2023-03-04T18:51:44.005Z,6.85
2023-03-04T18:54:12.345Z,8.93
2023-03-04T18:56:44.584Z,7.30
2023-03-04T18:59:17.944Z,8.85
2023-03-04T19:01:49.448Z,8.55
2023-03-04T19:04:22.858Z,9.35
2023-03-04T19:06:51.271Z,9.70
2023-03-04T19:09:19.738Z,10.20
2023-03-04T19:11:50.690Z,6.60
2023-03-04T19:14:19.178Z,8.60
2023-03-04T19:16:48.756Z,9.35
2023-03-04T19:19:17.056Z,8.73
2023-03-04T19:21:46.358Z,8.88
2023-03-04T19:24:14.611Z,8.90
2023-03-04T19:26:43.224Z,8.50
2023-03-04T19:29:12.314Z,7.60
2023-03-04T19:31:41.542Z,8.53
2023-03-04T19:34:12.503Z,8.00
2023-03-04T19:36:41.876Z,7.75
2023-03-04T19:39:12.116Z,7.47
2023-03-04T19:41:42.318Z,7.63
2023-03-04T19:44:11.772Z,7.53
2023-03-04T19:46:40.271Z,7.55
2023-03-04T19:49:10.375Z,8.20
2023-03-04T19:51:40.639Z,8.85
2023-03-04T19:54:09.750Z,6.53
2023-03-04T19:56:38.833Z,8.98
2023-03-04T19:59:07.203Z,9.05
2023-03-04T20:01:37.662Z,8.30
2023-03-04T20:04:09.514Z,7.25
2023-03-04T20:06:41.058Z,7.97
2023-03-04T20:09:09.589Z,8.40
2023-03-04T20:11:47.351Z,7.22
2023-03-04T20:14:24.934Z,8.02
2023-03-04T20:16:55.136Z,6.78
2023-03-04T20:19:23.355Z,6.75
2023-03-04T20:21:53.750Z,10.05
2023-03-04T20:24:23.496Z,8.18
2023-03-04T20:26:52.501Z,7.75
2023-03-04T20:29:21.165Z,7.88
2023-03-04T20:31:49.257Z,6.45
2023-03-04T20:34:17.761Z,7.97
2023-03-04T20:36:46.234Z,7.60
2023-03-04T20:39:28.055Z,8.23
2023-03-04T20:41:57.897Z,9.27
2023-03-04T20:44:26.537Z,7.68
2023-03-04T20:46:58.764Z,8.43
2023-03-04T20:49:28.879Z,8.07
2023-03-04T20:52:02.929Z,8.15
2023-03-04T20:54:32.703Z,7.28
2023-03-04T20:59:30.107Z,5.85
2023-03-04T21:01:59.735Z,7.43
2023-03-04T21:04:32.519Z,7.13
2023-03-04T21:07:03.932Z,7.50
2023-03-04T21:09:33.977Z,7.15
2023-03-04T21:12:02.308Z,8.18
2023-03-04T21:14:31.771Z,7.20
2023-03-04T21:17:02.444Z,8.13
2023-03-04T21:19:34.021Z,7.88
2023-03-04T21:22:12.503Z,7.13
2023-03-04T21:24:42.772Z,7.10
2023-03-04T21:27:11.256Z,8.90
2023-03-04T21:29:40.066Z,8.07
2023-03-04T21:32:23.698Z,8.57
2023-03-04T21:34:54.492Z,7.18
2023-03-04T21:37:24.690Z,7.20
2023-03-04T21:39:56.627Z,8.65
2023-03-04T21:42:25.341Z,7.10
2023-03-04T21:44:53.760Z,7.80
2023-03-04T21:47:22.850Z,8.05
2023-03-04T21:49:52.484Z,7.45
2023-03-04T21:52:22.656Z,6.35
2023-03-04T21:54:51.141Z,7.13
2023-03-04T21:57:20.833Z,7.93
2023-03-04T21:59:49.014Z,6.90
2023-03-04T22:02:19.684Z,6.00
2023-03-04T22:04:48.585Z,6.55
2023-03-04T22:07:17.176Z,8.07
2023-03-04T22:09:46.064Z,8.48
2023-03-04T22:12:18.347Z,6.90
2023-03-04T22:14:49.002Z,8.20
2023-03-04T22:17:17.864Z,8.32
2023-03-04T22:19:46.310Z,6.18
2023-03-04T22:22:18.138Z,7.57
2023-03-04T22:24:46.954Z,7.90
2023-03-04T22:27:15.945Z,6.82
2023-03-04T22:29:45.274Z,6.07
2023-03-04T22:32:18.224Z,7.70
2023-03-04T22:34:47.878Z,7.93
2023-03-04T22:37:17.828Z,5.65
2023-03-04T22:42:15.249Z,7.07
2023-03-04T22:44:44.818Z,6.95
2023-03-04T22:47:13.201Z,7.20
2023-03-04T22:49:43.349Z,7.13
2023-03-04T22:52:12.670Z,6.10
2023-03-04T22:54:43.475Z,7.15
2023-03-04T22:57:12.014Z,6.47
2023-03-04T22:59:40.133Z,6.22
2023-03-04T23:02:08.528Z,7.97
2023-03-04T23:04:38.137Z,7.40
2023-03-04T23:07:07.900Z,6.20
2023-03-04T23:12:07.265Z,6.43
2023-03-04T23:14:36.052Z,6.70
2023-03-04T23:17:04.572Z,6.90
2023-03-04T23:19:33.227Z,6.55
2023-03-04T23:22:02.758Z,6.22
2023-03-04T23:24:33.495Z,7.18
2023-03-04T23:27:02.105Z,6.65
2023-03-04T23:29:30.539Z,7.70
2023-03-04T23:31:58.693Z,6.45
2023-03-04T23:34:27.344Z,7.15
2023-03-04T23:36:55.606Z,7.38
2023-03-04T23:39:25.567Z,8.45
2023-03-04T23:41:55.663Z,7.57
2023-03-04T23:44:24.295Z,7.03
2023-03-04T23:46:52.733Z,8.52
2023-03-04T23:49:21.166Z,7.05
2023-03-04T23:51:49.478Z,6.32
2023-03-04T23:54:17.608Z,7.55
2023-03-04T23:56:46.168Z,6.32
2023-03-04T23:59:16.511Z,6.93
